sensor_id;sensor_type;location;lat;lon;timestamp;pressure;altitude;pressure_sealevel;temperature;humidity
65872;BME280;52653;50.080;21.992;2023-04-25T00:02:10;97937.77;;;11.85;82.74
65872;BME280;52653;50.080;21.992;2023-04-25T00:04:45;97934.02;;;11.83;82.85
65872;BME280;52653;50.080;21.992;2023-04-25T00:07:20;97929.66;;;11.81;83.09
65872;BME280;52653;50.080;21.992;2023-04-25T00:09:53;97931.11;;;11.79;83.35
65872;BME280;52653;50.080;21.992;2023-04-25T00:12:46;97924.98;;;11.78;83.75
65872;BME280;52653;50.080;21.992;2023-04-25T00:15:19;97918.77;;;11.74;84.20
65872;BME280;52653;50.080;21.992;2023-04-25T00:18:02;97918.76;;;11.70;84.49
65872;BME280;52653;50.080;21.992;2023-04-25T00:20:38;97918.30;;;11.67;84.69
65872;BME280;52653;50.080;21.992;2023-04-25T00:23:14;97914.50;;;11.65;85.25
65872;BME280;52653;50.080;21.992;2023-04-25T00:25:49;97914.34;;;11.65;85.39
65872;BME280;52653;50.080;21.992;2023-04-25T00:28:22;97912.91;;;11.66;85.67
65872;BME280;52653;50.080;21.992;2023-04-25T00:30:54;97910.30;;;11.65;85.72
65872;BME280;52653;50.080;21.992;2023-04-25T00:33:27;97909.46;;;11.64;85.63
65872;BME280;52653;50.080;21.992;2023-04-25T00:36:00;97908.05;;;11.64;85.92
65872;BME280;52653;50.080;21.992;2023-04-25T00:38:32;97905.96;;;11.64;86.07
65872;BME280;52653;50.080;21.992;2023-04-25T00:41:07;97904.01;;;11.64;86.00
65872;BME280;52653;50.080;21.992;2023-04-25T00:43:41;97902.44;;;11.64;86.05
65872;BME280;52653;50.080;21.992;2023-04-25T00:46:14;97897.00;;;11.64;86.02
65872;BME280;52653;50.080;21.992;2023-04-25T00:48:47;97896.55;;;11.62;86.16
65872;BME280;52653;50.080;21.992;2023-04-25T00:51:22;97901.34;;;11.60;86.41
65872;BME280;52653;50.080;21.992;2023-04-25T00:53:56;97900.52;;;11.59;86.41
65872;BME280;52653;50.080;21.992;2023-04-25T00:56:29;97897.93;;;11.57;86.82
65872;BME280;52653;50.080;21.992;2023-04-25T00:59:03;97897.08;;;11.56;86.73
65872;BME280;52653;50.080;21.992;2023-04-25T01:01:46;97896.39;;;11.55;86.89
65872;BME280;52653;50.080;21.992;2023-04-25T01:04:19;97892.75;;;11.54;87.00
65872;BME280;52653;50.080;21.992;2023-04-25T01:06:53;97891.16;;;11.54;87.09
65872;BME280;52653;50.080;21.992;2023-04-25T01:09:28;97887.67;;;11.53;87.00
65872;BME280;52653;50.080;21.992;2023-04-25T01:12:05;97885.95;;;11.53;87.18
65872;BME280;52653;50.080;21.992;2023-04-25T01:14:38;97885.28;;;11.52;87.27
65872;BME280;52653;50.080;21.992;2023-04-25T01:17:11;97885.67;;;11.50;87.29
65872;BME280;52653;50.080;21.992;2023-04-25T01:19:44;97881.90;;;11.48;87.26
65872;BME280;52653;50.080;21.992;2023-04-25T01:22:18;97878.95;;;11.47;87.26
65872;BME280;52653;50.080;21.992;2023-04-25T01:24:52;97875.14;;;11.45;87.31
65872;BME280;52653;50.080;21.992;2023-04-25T01:27:46;97879.55;;;11.45;87.49
65872;BME280;52653;50.080;21.992;2023-04-25T01:30:30;97875.55;;;11.43;87.50
65872;BME280;52653;50.080;21.992;2023-04-25T01:33:05;97875.02;;;11.43;87.49
65872;BME280;52653;50.080;21.992;2023-04-25T01:36:00;97868.52;;;11.43;87.63
65872;BME280;52653;50.080;21.992;2023-04-25T01:38:34;97869.42;;;11.43;87.79
65872;BME280;52653;50.080;21.992;2023-04-25T01:41:07;97869.23;;;11.43;87.83
65872;BME280;52653;50.080;21.992;2023-04-25T01:43:41;97863.08;;;11.44;87.84
65872;BME280;52653;50.080;21.992;2023-04-25T01:46:14;97863.26;;;11.43;87.85
65872;BME280;52653;50.080;21.992;2023-04-25T01:48:59;97860.27;;;11.44;87.90
65872;BME280;52653;50.080;21.992;2023-04-25T01:51:33;97856.92;;;11.44;88.04
65872;BME280;52653;50.080;21.992;2023-04-25T01:54:08;97853.92;;;11.45;88.03
65872;BME280;52653;50.080;21.992;2023-04-25T01:56:40;97855.98;;;11.46;87.99
65872;BME280;52653;50.080;21.992;2023-04-25T01:59:17;97854.20;;;11.46;87.92
65872;BME280;52653;50.080;21.992;2023-04-25T02:02:09;97852.41;;;11.47;87.86
65872;BME280;52653;50.080;21.992;2023-04-25T02:04:42;97853.84;;;11.47;87.78
65872;BME280;52653;50.080;21.992;2023-04-25T02:07:16;97846.69;;;11.45;87.87
65872;BME280;52653;50.080;21.992;2023-04-25T02:09:56;97843.04;;;11.45;87.76
65872;BME280;52653;50.080;21.992;2023-04-25T02:12:30;97845.52;;;11.44;87.75
65872;BME280;52653;50.080;21.992;2023-04-25T02:15:41;97840.44;;;11.43;87.81
65872;BME280;52653;50.080;21.992;2023-04-25T02:18:18;97837.98;;;11.43;87.91
65872;BME280;52653;50.080;21.992;2023-04-25T02:21:02;97839.55;;;11.44;87.80
65872;BME280;52653;50.080;21.992;2023-04-25T02:23:55;97841.13;;;11.44;87.74
65872;BME280;52653;50.080;21.992;2023-04-25T02:26:31;97831.64;;;11.44;87.84
65872;BME280;52653;50.080;21.992;2023-04-25T02:29:08;97833.17;;;11.46;88.07
65872;BME280;52653;50.080;21.992;2023-04-25T02:31:41;97835.64;;;11.45;88.03
65872;BME280;52653;50.080;21.992;2023-04-25T02:34:14;97830.28;;;11.48;88.04
65872;BME280;52653;50.080;21.992;2023-04-25T02:36:52;97831.45;;;11.50;87.81
65872;BME280;52653;50.080;21.992;2023-04-25T02:39:44;97830.30;;;11.52;87.71
65872;BME280;52653;50.080;21.992;2023-04-25T02:42:17;97830.47;;;11.52;87.57
65872;BME280;52653;50.080;21.992;2023-04-25T02:44:53;97830.13;;;11.52;87.52
65872;BME280;52653;50.080;21.992;2023-04-25T02:47:26;97829.74;;;11.53;87.38
65872;BME280;52653;50.080;21.992;2023-04-25T02:49:59;97831.48;;;11.54;87.46
65872;BME280;52653;50.080;21.992;2023-04-25T02:52:33;97830.30;;;11.53;87.52
65872;BME280;52653;50.080;21.992;2023-04-25T02:55:15;97830.10;;;11.53;87.53
65872;BME280;52653;50.080;21.992;2023-04-25T02:57:49;97829.85;;;11.55;87.52
65872;BME280;52653;50.080;21.992;2023-04-25T03:00:40;97831.24;;;11.56;87.41
65872;BME280;52653;50.080;21.992;2023-04-25T03:03:13;97826.52;;;11.55;87.35
65872;BME280;52653;50.080;21.992;2023-04-25T03:05:52;97825.20;;;11.53;87.46
65872;BME280;52653;50.080;21.992;2023-04-25T03:08:28;97825.92;;;11.52;87.45
65872;BME280;52653;50.080;21.992;2023-04-25T03:11:06;97824.84;;;11.53;87.43
65872;BME280;52653;50.080;21.992;2023-04-25T03:13:41;97823.62;;;11.53;87.25
65872;BME280;52653;50.080;21.992;2023-04-25T03:16:14;97821.17;;;11.52;87.34
65872;BME280;52653;50.080;21.992;2023-04-25T03:18:49;97815.75;;;11.52;87.37
65872;BME280;52653;50.080;21.992;2023-04-25T03:21:24;97816.64;;;11.51;87.32
65872;BME280;52653;50.080;21.992;2023-04-25T03:23:57;97814.67;;;11.53;87.40
65872;BME280;52653;50.080;21.992;2023-04-25T03:26:30;97813.80;;;11.52;87.32
65872;BME280;52653;50.080;21.992;2023-04-25T03:29:03;97820.14;;;11.52;87.45
65872;BME280;52653;50.080;21.992;2023-04-25T03:31:36;97821.83;;;11.53;87.64
65872;BME280;52653;50.080;21.992;2023-04-25T03:34:12;97821.95;;;11.55;87.63
65872;BME280;52653;50.080;21.992;2023-04-25T03:36:48;97821.02;;;11.58;87.77
65872;BME280;52653;50.080;21.992;2023-04-25T03:39:20;97820.59;;;11.59;87.81
65872;BME280;52653;50.080;21.992;2023-04-25T03:41:53;97821.42;;;11.61;87.79
65872;BME280;52653;50.080;21.992;2023-04-25T03:44:28;97823.33;;;11.61;87.92
65872;BME280;52653;50.080;21.992;2023-04-25T03:47:04;97821.49;;;11.64;87.89
65872;BME280;52653;50.080;21.992;2023-04-25T03:49:37;97822.64;;;11.65;87.97
65872;BME280;52653;50.080;21.992;2023-04-25T03:52:10;97820.33;;;11.66;88.00
65872;BME280;52653;50.080;21.992;2023-04-25T03:54:43;97818.69;;;11.68;87.95
65872;BME280;52653;50.080;21.992;2023-04-25T03:57:23;97820.39;;;11.70;88.03
65872;BME280;52653;50.080;21.992;2023-04-25T03:59:57;97821.89;;;11.72;88.05
65872;BME280;52653;50.080;21.992;2023-04-25T04:02:32;97820.39;;;11.75;88.11
65872;BME280;52653;50.080;21.992;2023-04-25T04:05:06;97818.73;;;11.77;88.15
65872;BME280;52653;50.080;21.992;2023-04-25T04:07:52;97821.09;;;11.81;88.23
65872;BME280;52653;50.080;21.992;2023-04-25T04:10:26;97824.48;;;11.85;88.09
65872;BME280;52653;50.080;21.992;2023-04-25T04:12:58;97820.69;;;11.88;88.04
65872;BME280;52653;50.080;21.992;2023-04-25T04:15:33;97821.85;;;11.90;87.89
65872;BME280;52653;50.080;21.992;2023-04-25T04:18:20;97824.56;;;11.92;88.03
65872;BME280;52653;50.080;21.992;2023-04-25T04:20:53;97826.42;;;11.94;87.85
65872;BME280;52653;50.080;21.992;2023-04-25T04:23:25;97825.30;;;11.96;87.91
65872;BME280;52653;50.080;21.992;2023-04-25T04:26:00;97827.87;;;11.98;87.90
65872;BME280;52653;50.080;21.992;2023-04-25T04:29:10;97823.88;;;12.01;87.82
65872;BME280;52653;50.080;21.992;2023-04-25T04:31:51;97823.23;;;12.04;87.81
65872;BME280;52653;50.080;21.992;2023-04-25T04:34:25;97822.80;;;12.07;87.86
65872;BME280;52653;50.080;21.992;2023-04-25T04:36:58;97827.48;;;12.09;87.78
65872;BME280;52653;50.080;21.992;2023-04-25T04:39:31;97824.05;;;12.12;87.58
65872;BME280;52653;50.080;21.992;2023-04-25T04:42:32;97822.88;;;12.14;87.72
65872;BME280;52653;50.080;21.992;2023-04-25T04:45:19;97826.31;;;12.17;87.63
65872;BME280;52653;50.080;21.992;2023-04-25T04:48:11;97821.46;;;12.20;87.63
65872;BME280;52653;50.080;21.992;2023-04-25T04:50:58;97825.09;;;12.22;87.47
65872;BME280;52653;50.080;21.992;2023-04-25T04:53:51;97822.23;;;12.23;87.45
65872;BME280;52653;50.080;21.992;2023-04-25T04:56:53;97820.80;;;12.23;87.29
65872;BME280;52653;50.080;21.992;2023-04-25T04:59:46;97819.29;;;12.26;87.25
65872;BME280;52653;50.080;21.992;2023-04-25T05:02:41;97816.69;;;12.29;87.32
65872;BME280;52653;50.080;21.992;2023-04-25T05:05:33;97818.28;;;12.29;87.22
65872;BME280;52653;50.080;21.992;2023-04-25T05:08:29;97818.77;;;12.30;87.19
65872;BME280;52653;50.080;21.992;2023-04-25T05:11:33;97817.41;;;12.34;87.21
65872;BME280;52653;50.080;21.992;2023-04-25T05:14:29;97817.15;;;12.41;87.12
65872;BME280;52653;50.080;21.992;2023-04-25T05:17:15;97815.05;;;12.50;86.89
65872;BME280;52653;50.080;21.992;2023-04-25T05:20:26;97813.76;;;12.65;86.95
65872;BME280;52653;50.080;21.992;2023-04-25T05:23:17;97811.86;;;12.78;86.57
65872;BME280;52653;50.080;21.992;2023-04-25T05:26:16;97814.06;;;12.89;86.08
65872;BME280;52653;50.080;21.992;2023-04-25T05:29:27;97817.84;;;12.97;85.92
65872;BME280;52653;50.080;21.992;2023-04-25T05:32:35;97817.52;;;13.00;85.68
65872;BME280;52653;50.080;21.992;2023-04-25T05:35:20;97818.05;;;12.95;85.44
65872;BME280;52653;50.080;21.992;2023-04-25T05:37:56;97818.03;;;12.91;85.29
65872;BME280;52653;50.080;21.992;2023-04-25T05:40:49;97817.88;;;12.87;85.24
65872;BME280;52653;50.080;21.992;2023-04-25T05:43:45;97821.34;;;12.83;85.06
65872;BME280;52653;50.080;21.992;2023-04-25T05:46:44;97819.30;;;12.81;85.25
65872;BME280;52653;50.080;21.992;2023-04-25T05:49:35;97823.06;;;12.79;84.96
65872;BME280;52653;50.080;21.992;2023-04-25T05:52:17;97822.27;;;12.77;84.92
65872;BME280;52653;50.080;21.992;2023-04-25T05:55:04;97820.46;;;12.75;85.07
65872;BME280;52653;50.080;21.992;2023-04-25T05:57:40;97822.89;;;12.71;85.12
65872;BME280;52653;50.080;21.992;2023-04-25T06:00:28;97821.04;;;12.68;85.16
65872;BME280;52653;50.080;21.992;2023-04-25T06:03:01;97819.77;;;12.65;85.22
65872;BME280;52653;50.080;21.992;2023-04-25T06:05:45;97822.25;;;12.64;85.22
65872;BME280;52653;50.080;21.992;2023-04-25T06:08:20;97823.02;;;12.67;85.64
65872;BME280;52653;50.080;21.992;2023-04-25T06:10:53;97823.52;;;12.67;85.47
65872;BME280;52653;50.080;21.992;2023-04-25T06:13:38;97821.19;;;12.69;85.42
65872;BME280;52653;50.080;21.992;2023-04-25T06:16:24;97822.09;;;12.68;85.38
65872;BME280;52653;50.080;21.992;2023-04-25T06:18:58;97818.48;;;12.71;85.46
65872;BME280;52653;50.080;21.992;2023-04-25T06:21:41;97816.78;;;12.74;85.23
65872;BME280;52653;50.080;21.992;2023-04-25T06:24:25;97818.40;;;12.73;85.26
65872;BME280;52653;50.080;21.992;2023-04-25T06:27:18;97818.02;;;12.74;85.26
65872;BME280;52653;50.080;21.992;2023-04-25T06:30:13;97818.74;;;12.74;85.48
65872;BME280;52653;50.080;21.992;2023-04-25T06:33:07;97824.45;;;12.66;85.13
65872;BME280;52653;50.080;21.992;2023-04-25T06:36:02;97827.06;;;12.58;85.07
65872;BME280;52653;50.080;21.992;2023-04-25T06:38:44;97827.71;;;12.46;85.31
65872;BME280;52653;50.080;21.992;2023-04-25T06:41:26;97828.08;;;12.31;85.57
65872;BME280;52653;50.080;21.992;2023-04-25T06:44:18;97832.30;;;12.22;85.82
65872;BME280;52653;50.080;21.992;2023-04-25T06:47:12;97829.71;;;12.15;86.24
65872;BME280;52653;50.080;21.992;2023-04-25T06:49:51;97829.27;;;12.18;86.07
65872;BME280;52653;50.080;21.992;2023-04-25T06:52:27;97834.36;;;12.23;85.81
65872;BME280;52653;50.080;21.992;2023-04-25T06:55:11;97833.30;;;12.32;85.67
65872;BME280;52653;50.080;21.992;2023-04-25T06:58:04;97835.73;;;12.43;84.53
65872;BME280;52653;50.080;21.992;2023-04-25T07:01:03;97832.07;;;12.51;83.75
65872;BME280;52653;50.080;21.992;2023-04-25T07:03:35;97840.45;;;12.48;83.35
65872;BME280;52653;50.080;21.992;2023-04-25T07:06:16;97845.20;;;12.39;83.64
65872;BME280;52653;50.080;21.992;2023-04-25T07:09:09;97843.73;;;12.21;83.79
65872;BME280;52653;50.080;21.992;2023-04-25T07:11:42;97847.69;;;12.09;84.42
65872;BME280;52653;50.080;21.992;2023-04-25T07:14:36;97853.23;;;11.92;84.62
65872;BME280;52653;50.080;21.992;2023-04-25T07:17:09;97853.39;;;11.76;85.03
65872;BME280;52653;50.080;21.992;2023-04-25T07:19:45;97852.17;;;11.60;85.18
65872;BME280;52653;50.080;21.992;2023-04-25T07:22:18;97853.17;;;11.45;85.58
65872;BME280;52653;50.080;21.992;2023-04-25T07:24:51;97855.30;;;11.39;85.81
65872;BME280;52653;50.080;21.992;2023-04-25T07:27:27;97855.84;;;11.34;86.04
65872;BME280;52653;50.080;21.992;2023-04-25T07:30:21;97855.23;;;11.32;86.31
65872;BME280;52653;50.080;21.992;2023-04-25T07:32:59;97856.03;;;11.28;86.56
65872;BME280;52653;50.080;21.992;2023-04-25T07:35:44;97858.60;;;11.30;87.04
65872;BME280;52653;50.080;21.992;2023-04-25T07:38:39;97856.67;;;11.30;87.35
65872;BME280;52653;50.080;21.992;2023-04-25T07:41:32;97860.75;;;11.23;88.04
65872;BME280;52653;50.080;21.992;2023-04-25T07:44:27;97863.96;;;11.16;88.35
65872;BME280;52653;50.080;21.992;2023-04-25T07:47:21;97868.60;;;11.08;88.70
65872;BME280;52653;50.080;21.992;2023-04-25T07:50:15;97870.34;;;10.98;89.31
65872;BME280;52653;50.080;21.992;2023-04-25T07:53:08;97867.56;;;10.91;89.82
65872;BME280;52653;50.080;21.992;2023-04-25T07:55:59;97869.94;;;10.82;90.46
65872;BME280;52653;50.080;21.992;2023-04-25T07:58:46;97873.16;;;10.74;91.05
65872;BME280;52653;50.080;21.992;2023-04-25T08:01:39;97874.72;;;10.69;91.28
65872;BME280;52653;50.080;21.992;2023-04-25T08:04:16;97876.57;;;10.66;91.76
65872;BME280;52653;50.080;21.992;2023-04-25T08:07:06;97880.88;;;10.62;92.36
65872;BME280;52653;50.080;21.992;2023-04-25T08:09:59;97883.18;;;10.61;91.99
65872;BME280;52653;50.080;21.992;2023-04-25T08:12:51;97883.10;;;10.64;91.89
65872;BME280;52653;50.080;21.992;2023-04-25T08:15:46;97882.04;;;10.58;91.71
65872;BME280;52653;50.080;21.992;2023-04-25T08:18:39;97887.96;;;10.53;92.11
65872;BME280;52653;50.080;21.992;2023-04-25T08:21:16;97888.59;;;10.50;91.94
65872;BME280;52653;50.080;21.992;2023-04-25T08:23:57;97896.10;;;10.45;92.18
65872;BME280;52653;50.080;21.992;2023-04-25T08:26:51;97901.43;;;10.36;91.95
65872;BME280;52653;50.080;21.992;2023-04-25T08:29:45;97904.34;;;10.26;92.32
65872;BME280;52653;50.080;21.992;2023-04-25T08:32:28;97905.74;;;10.19;92.50
65872;BME280;52653;50.080;21.992;2023-04-25T08:35:13;97913.05;;;10.14;92.56
65872;BME280;52653;50.080;21.992;2023-04-25T08:37:51;97914.77;;;10.09;92.90
65872;BME280;52653;50.080;21.992;2023-04-25T08:40:28;97913.27;;;10.06;92.99
65872;BME280;52653;50.080;21.992;2023-04-25T08:43:25;97913.58;;;10.00;93.06
65872;BME280;52653;50.080;21.992;2023-04-25T08:46:07;97924.51;;;9.98;92.79
65872;BME280;52653;50.080;21.992;2023-04-25T08:49:01;97931.31;;;9.98;92.67
65872;BME280;52653;50.080;21.992;2023-04-25T08:51:55;97932.65;;;10.01;92.81
65872;BME280;52653;50.080;21.992;2023-04-25T08:54:32;97938.73;;;9.96;93.06
65872;BME280;52653;50.080;21.992;2023-04-25T08:57:07;97943.89;;;9.93;92.94
65872;BME280;52653;50.080;21.992;2023-04-25T08:59:42;97949.11;;;9.87;92.69
65872;BME280;52653;50.080;21.992;2023-04-25T09:02:18;97946.72;;;9.85;92.28
65872;BME280;52653;50.080;21.992;2023-04-25T09:04:54;97951.31;;;9.84;92.64
65872;BME280;52653;50.080;21.992;2023-04-25T09:07:32;97952.22;;;9.83;93.17
65872;BME280;52653;50.080;21.992;2023-04-25T09:10:06;97955.95;;;9.81;92.24
65872;BME280;52653;50.080;21.992;2023-04-25T09:12:42;97961.94;;;9.78;91.62
65872;BME280;52653;50.080;21.992;2023-04-25T09:15:17;97960.65;;;9.81;91.77
65872;BME280;52653;50.080;21.992;2023-04-25T09:17:56;97964.67;;;9.82;91.60
65872;BME280;52653;50.080;21.992;2023-04-25T09:20:42;97964.96;;;9.77;91.24
65872;BME280;52653;50.080;21.992;2023-04-25T09:23:23;97967.24;;;9.77;91.24
65872;BME280;52653;50.080;21.992;2023-04-25T09:25:55;97972.01;;;9.75;90.91
65872;BME280;52653;50.080;21.992;2023-04-25T09:28:30;97971.64;;;9.76;91.06
65872;BME280;52653;50.080;21.992;2023-04-25T09:31:04;97973.28;;;9.80;90.99
65872;BME280;52653;50.080;21.992;2023-04-25T09:33:42;97976.45;;;9.80;90.73
65872;BME280;52653;50.080;21.992;2023-04-25T09:36:27;97978.95;;;9.77;90.12
65872;BME280;52653;50.080;21.992;2023-04-25T09:39:23;97973.86;;;9.79;90.29
65872;BME280;52653;50.080;21.992;2023-04-25T09:42:11;97979.45;;;9.79;90.23
65872;BME280;52653;50.080;21.992;2023-04-25T09:44:55;97982.16;;;9.75;90.31
65872;BME280;52653;50.080;21.992;2023-04-25T09:47:28;97978.85;;;9.74;90.52
65872;BME280;52653;50.080;21.992;2023-04-25T09:50:04;97982.79;;;9.71;89.96
65872;BME280;52653;50.080;21.992;2023-04-25T09:53:08;97980.04;;;9.76;90.05
65872;BME280;52653;50.080;21.992;2023-04-25T09:56:01;97981.19;;;9.87;90.19
65872;BME280;52653;50.080;21.992;2023-04-25T09:58:40;97985.69;;;10.03;89.54
65872;BME280;52653;50.080;21.992;2023-04-25T10:01:13;97987.38;;;10.20;87.98
65872;BME280;52653;50.080;21.992;2023-04-25T10:03:54;97988.00;;;10.30;86.87
65872;BME280;52653;50.080;21.992;2023-04-25T10:06:47;97983.21;;;10.45;86.86
65872;BME280;52653;50.080;21.992;2023-04-25T10:09:23;97984.98;;;10.45;86.38
65872;BME280;52653;50.080;21.992;2023-04-25T10:12:00;97989.33;;;10.46;85.99
65872;BME280;52653;50.080;21.992;2023-04-25T10:14:33;97983.77;;;10.50;85.73
65872;BME280;52653;50.080;21.992;2023-04-25T10:17:08;97985.55;;;10.55;85.80
65872;BME280;52653;50.080;21.992;2023-04-25T10:19:42;97991.44;;;10.58;85.94
65872;BME280;52653;50.080;21.992;2023-04-25T10:22:20;98000.92;;;10.45;85.08
65872;BME280;52653;50.080;21.992;2023-04-25T10:24:59;97992.11;;;10.34;85.55
65872;BME280;52653;50.080;21.992;2023-04-25T10:27:36;97996.70;;;10.33;86.07
65872;BME280;52653;50.080;21.992;2023-04-25T10:30:29;97990.88;;;10.40;86.33
65872;BME280;52653;50.080;21.992;2023-04-25T10:33:30;97998.98;;;10.46;86.13
65872;BME280;52653;50.080;21.992;2023-04-25T10:36:12;97992.92;;;10.49;85.67
65872;BME280;52653;50.080;21.992;2023-04-25T10:38:49;97996.85;;;10.53;85.20
65872;BME280;52653;50.080;21.992;2023-04-25T10:41:47;97998.73;;;10.55;85.00
65872;BME280;52653;50.080;21.992;2023-04-25T10:44:30;97999.05;;;10.49;85.15
65872;BME280;52653;50.080;21.992;2023-04-25T10:47:06;97992.23;;;10.48;85.59
65872;BME280;52653;50.080;21.992;2023-04-25T10:49:43;97995.08;;;10.47;85.57
65872;BME280;52653;50.080;21.992;2023-04-25T10:52:26;97994.82;;;10.44;85.22
65872;BME280;52653;50.080;21.992;2023-04-25T10:55:12;98002.70;;;10.38;84.96
65872;BME280;52653;50.080;21.992;2023-04-25T10:57:46;98006.66;;;10.34;84.86
65872;BME280;52653;50.080;21.992;2023-04-25T11:00:22;98011.54;;;10.35;85.40
65872;BME280;52653;50.080;21.992;2023-04-25T11:03:42;98010.34;;;10.34;84.75
65872;BME280;52653;50.080;21.992;2023-04-25T11:06:18;98015.44;;;10.33;84.62
65872;BME280;52653;50.080;21.992;2023-04-25T11:08:53;98014.77;;;10.32;85.02
65872;BME280;52653;50.080;21.992;2023-04-25T11:11:26;98015.67;;;10.31;85.32
65872;BME280;52653;50.080;21.992;2023-04-25T11:14:04;98013.98;;;10.28;85.39
65872;BME280;52653;50.080;21.992;2023-04-25T11:16:37;98014.77;;;10.18;85.22
65872;BME280;52653;50.080;21.992;2023-04-25T11:19:10;98014.79;;;10.15;85.55
65872;BME280;52653;50.080;21.992;2023-04-25T11:21:43;98013.04;;;10.15;85.36
65872;BME280;52653;50.080;21.992;2023-04-25T11:24:18;98012.57;;;10.14;85.29
65872;BME280;52653;50.080;21.992;2023-04-25T11:26:51;98014.41;;;10.11;85.26
65872;BME280;52653;50.080;21.992;2023-04-25T11:29:24;98015.58;;;10.05;85.29
65872;BME280;52653;50.080;21.992;2023-04-25T11:32:02;98016.55;;;9.94;85.71
65872;BME280;52653;50.080;21.992;2023-04-25T11:34:37;98020.67;;;9.83;86.15
65872;BME280;52653;50.080;21.992;2023-04-25T11:37:10;98029.41;;;9.69;86.74
65872;BME280;52653;50.080;21.992;2023-04-25T11:39:45;98023.72;;;9.58;87.23
65872;BME280;52653;50.080;21.992;2023-04-25T11:42:19;98027.79;;;9.48;87.80
65872;BME280;52653;50.080;21.992;2023-04-25T11:44:52;98030.61;;;9.48;88.32
65872;BME280;52653;50.080;21.992;2023-04-25T11:47:30;98026.44;;;9.46;88.73
65872;BME280;52653;50.080;21.992;2023-04-25T11:50:05;98029.98;;;9.45;88.57
65872;BME280;52653;50.080;21.992;2023-04-25T11:52:41;98028.69;;;9.39;88.20
65872;BME280;52653;50.080;21.992;2023-04-25T11:55:19;98028.05;;;9.36;87.71
65872;BME280;52653;50.080;21.992;2023-04-25T11:57:53;98032.53;;;9.31;86.99
65872;BME280;52653;50.080;21.992;2023-04-25T12:00:28;98028.23;;;9.28;86.73
65872;BME280;52653;50.080;21.992;2023-04-25T12:03:21;98032.66;;;9.25;86.74
65872;BME280;52653;50.080;21.992;2023-04-25T12:06:19;98028.16;;;9.32;87.00
65872;BME280;52653;50.080;21.992;2023-04-25T12:09:07;98028.08;;;9.34;87.09
65872;BME280;52653;50.080;21.992;2023-04-25T12:12:00;98022.61;;;9.37;86.91
65872;BME280;52653;50.080;21.992;2023-04-25T12:14:48;98024.16;;;9.38;87.14
65872;BME280;52653;50.080;21.992;2023-04-25T12:17:30;98026.43;;;9.38;87.03
65872;BME280;52653;50.080;21.992;2023-04-25T12:20:10;98024.98;;;9.40;86.92
65872;BME280;52653;50.080;21.992;2023-04-25T12:22:47;98024.69;;;9.37;86.98
65872;BME280;52653;50.080;21.992;2023-04-25T12:25:38;98025.46;;;9.34;87.07
65872;BME280;52653;50.080;21.992;2023-04-25T12:28:17;98027.48;;;9.38;87.21
65872;BME280;52653;50.080;21.992;2023-04-25T12:31:01;98027.63;;;9.39;86.97
65872;BME280;52653;50.080;21.992;2023-04-25T12:33:35;98031.40;;;9.43;87.04
65872;BME280;52653;50.080;21.992;2023-04-25T12:36:11;98032.86;;;9.48;86.59
65872;BME280;52653;50.080;21.992;2023-04-25T12:38:48;98028.88;;;9.46;86.06
65872;BME280;52653;50.080;21.992;2023-04-25T12:41:20;98027.36;;;9.44;86.28
65872;BME280;52653;50.080;21.992;2023-04-25T12:43:53;98034.20;;;9.43;86.21
65872;BME280;52653;50.080;21.992;2023-04-25T12:46:46;98029.87;;;9.41;86.14
65872;BME280;52653;50.080;21.992;2023-04-25T12:49:29;98031.13;;;9.39;86.10
65872;BME280;52653;50.080;21.992;2023-04-25T12:52:05;98030.66;;;9.37;86.56
65872;BME280;52653;50.080;21.992;2023-04-25T12:54:42;98032.14;;;9.33;86.64
65872;BME280;52653;50.080;21.992;2023-04-25T12:57:35;98033.63;;;9.29;87.12
65872;BME280;52653;50.080;21.992;2023-04-25T13:00:19;98038.21;;;9.28;87.62
65872;BME280;52653;50.080;21.992;2023-04-25T13:03:02;98043.73;;;9.22;88.02
65872;BME280;52653;50.080;21.992;2023-04-25T13:05:48;98042.26;;;9.19;88.49
65872;BME280;52653;50.080;21.992;2023-04-25T13:08:25;98039.70;;;9.16;88.53
65872;BME280;52653;50.080;21.992;2023-04-25T13:10:57;98039.88;;;9.16;88.95
65872;BME280;52653;50.080;21.992;2023-04-25T13:13:34;98040.76;;;9.15;88.78
65872;BME280;52653;50.080;21.992;2023-04-25T13:16:10;98035.56;;;9.20;88.11
65872;BME280;52653;50.080;21.992;2023-04-25T13:19:02;98031.39;;;9.27;87.68
65872;BME280;52653;50.080;21.992;2023-04-25T13:21:35;98035.15;;;9.32;87.19
65872;BME280;52653;50.080;21.992;2023-04-25T13:24:09;98033.52;;;9.34;87.07
65872;BME280;52653;50.080;21.992;2023-04-25T13:26:46;98034.92;;;9.42;87.42
65872;BME280;52653;50.080;21.992;2023-04-25T13:29:20;98037.08;;;9.47;87.11
65872;BME280;52653;50.080;21.992;2023-04-25T13:31:53;98035.33;;;9.47;86.93
65872;BME280;52653;50.080;21.992;2023-04-25T13:34:26;98037.02;;;9.50;86.54
65872;BME280;52653;50.080;21.992;2023-04-25T13:36:58;98036.73;;;9.47;86.19
65872;BME280;52653;50.080;21.992;2023-04-25T13:39:31;98040.70;;;9.50;86.14
65872;BME280;52653;50.080;21.992;2023-04-25T13:42:07;98037.69;;;9.59;86.42
65872;BME280;52653;50.080;21.992;2023-04-25T13:44:39;98034.61;;;9.71;86.64
65872;BME280;52653;50.080;21.992;2023-04-25T13:47:12;98031.75;;;9.81;86.11
65872;BME280;52653;50.080;21.992;2023-04-25T13:49:45;98034.56;;;9.95;85.79
65872;BME280;52653;50.080;21.992;2023-04-25T13:52:18;98038.25;;;10.02;85.55
65872;BME280;52653;50.080;21.992;2023-04-25T13:54:52;98041.87;;;9.98;84.73
65872;BME280;52653;50.080;21.992;2023-04-25T13:57:25;98044.49;;;9.83;84.80
65872;BME280;52653;50.080;21.992;2023-04-25T14:00:01;98047.09;;;9.69;85.12
65872;BME280;52653;50.080;21.992;2023-04-25T14:02:37;98047.41;;;9.62;85.61
65872;BME280;52653;50.080;21.992;2023-04-25T14:05:10;98051.88;;;9.59;86.09